createdAt,value
2023-05-19T00:00:33.718Z,529.00
2023-05-19T00:01:33.279Z,527.00
2023-05-19T00:02:33.559Z,527.00
2023-05-19T00:03:34.501Z,531.00
2023-05-19T00:04:34.318Z,528.00
2023-05-19T00:05:33.491Z,530.00
2023-05-19T00:06:34.566Z,528.00
2023-05-19T00:07:33.475Z,525.00
2023-05-19T00:08:33.397Z,524.00
2023-05-19T00:09:34.591Z,525.00
2023-05-19T00:10:33.872Z,527.00
2023-05-19T00:11:34.428Z,532.00
2023-05-19T00:12:33.453Z,531.00
2023-05-19T00:13:33.693Z,526.00
2023-05-19T00:14:33.660Z,523.00
2023-05-19T00:15:34.633Z,526.00
2023-05-19T00:16:34.581Z,526.00
2023-05-19T00:17:33.780Z,525.00
2023-05-19T00:18:34.786Z,526.00
2023-05-19T00:19:34.589Z,523.00
2023-05-19T00:20:34.849Z,525.00
2023-05-19T00:21:33.714Z,528.00
2023-05-19T00:22:34.708Z,529.00
2023-05-19T00:23:33.722Z,526.00
2023-05-19T00:24:33.719Z,527.00
2023-05-19T00:25:34.823Z,529.00
2023-05-19T00:26:33.772Z,530.00
2023-05-19T00:27:34.663Z,521.00
2023-05-19T00:28:34.875Z,523.00
2023-05-19T00:29:33.806Z,524.00
2023-05-19T00:30:34.014Z,529.00
2023-05-19T00:31:33.803Z,523.00
2023-05-19T00:32:34.906Z,530.00
2023-05-19T00:33:34.003Z,523.00
2023-05-19T00:34:34.784Z,527.00
2023-05-19T00:35:33.916Z,525.00
2023-05-19T00:36:33.795Z,527.00
2023-05-19T00:37:34.846Z,528.00
2023-05-19T00:38:34.025Z,520.00
2023-05-19T00:39:33.866Z,527.00
2023-05-19T00:40:34.132Z,525.00
2023-05-19T00:41:33.988Z,527.00
2023-05-19T00:42:34.170Z,526.00
2023-05-19T00:43:34.978Z,528.00
2023-05-19T00:44:35.065Z,524.00
2023-05-19T00:45:34.031Z,526.00
2023-05-19T00:46:34.286Z,525.00
2023-05-19T00:47:35.071Z,526.00
2023-05-19T00:48:34.009Z,528.00
2023-05-19T00:49:35.271Z,527.00
2023-05-19T00:50:34.583Z,521.00
2023-05-19T00:51:35.106Z,525.00
2023-05-19T00:52:34.095Z,521.00
2023-05-19T00:53:34.186Z,528.00
2023-05-19T00:54:34.355Z,528.00
2023-05-19T00:55:34.372Z,523.00
2023-05-19T00:56:35.386Z,524.00
2023-05-19T00:57:35.436Z,529.00
2023-05-19T00:58:34.264Z,525.00
2023-05-19T00:59:34.149Z,522.00
2023-05-19T01:00:35.450Z,525.00
2023-05-19T01:01:35.311Z,523.00
2023-05-19T01:02:34.267Z,527.00
2023-05-19T01:03:35.518Z,529.00
2023-05-19T01:04:35.513Z,525.00
2023-05-19T01:05:34.413Z,527.00
2023-05-19T01:06:35.355Z,525.00
2023-05-19T01:07:34.511Z,523.00
2023-05-19T01:08:35.379Z,528.00
2023-05-19T01:09:35.621Z,528.00
2023-05-19T01:10:34.429Z,523.00
2023-05-19T01:11:34.501Z,524.00
2023-05-19T01:12:34.518Z,529.00
2023-05-19T01:13:34.633Z,525.00
2023-05-19T01:14:35.533Z,524.00
2023-05-19T01:15:34.591Z,526.00
2023-05-19T01:16:34.806Z,521.00
2023-05-19T01:17:34.741Z,527.00
2023-05-19T01:18:35.664Z,524.00
2023-05-19T01:19:34.564Z,525.00
2023-05-19T01:20:34.663Z,524.00
2023-05-19T01:21:34.577Z,524.00
2023-05-19T01:22:34.534Z,522.00
2023-05-19T01:23:35.497Z,517.00
2023-05-19T01:24:34.637Z,525.00
2023-05-19T01:25:34.645Z,523.00
2023-05-19T01:26:34.706Z,523.00
2023-05-19T01:27:35.524Z,526.00
2023-05-19T01:28:35.579Z,519.00
2023-05-19T01:29:35.768Z,523.00
2023-05-19T01:30:35.704Z,524.00
2023-05-19T01:31:34.880Z,521.00
2023-05-19T01:32:35.682Z,524.00
2023-05-19T01:33:34.656Z,524.00
2023-05-19T01:34:34.728Z,527.00
2023-05-19T01:35:34.865Z,527.00
2023-05-19T01:36:34.703Z,520.00
2023-05-19T01:37:35.760Z,526.00
2023-05-19T01:38:34.813Z,525.00
2023-05-19T01:39:34.848Z,523.00
2023-05-19T01:40:35.107Z,526.00
2023-05-19T01:41:35.776Z,526.00
2023-05-19T01:42:35.830Z,522.00
2023-05-19T01:43:35.807Z,519.00
2023-05-19T01:44:34.889Z,524.00
2023-05-19T01:45:35.786Z,521.00
2023-05-19T01:46:36.077Z,522.00
2023-05-19T01:47:35.831Z,525.00
2023-05-19T01:48:35.824Z,524.00
2023-05-19T01:49:34.889Z,524.00
2023-05-19T01:50:35.892Z,525.00
2023-05-19T01:51:35.026Z,518.00
2023-05-19T01:52:34.895Z,522.00
2023-05-19T01:53:34.916Z,522.00
2023-05-19T01:54:35.022Z,525.00
2023-05-19T01:55:35.002Z,520.00
2023-05-19T01:56:35.969Z,525.00
2023-05-19T01:57:35.034Z,524.00
2023-05-19T01:58:35.009Z,526.00
2023-05-19T01:59:35.066Z,521.00
2023-05-19T02:00:35.421Z,521.00
2023-05-19T02:01:35.175Z,522.00
2023-05-19T02:02:36.135Z,519.00
2023-05-19T02:03:35.329Z,526.00
2023-05-19T02:04:36.255Z,526.00
2023-05-19T02:05:36.137Z,523.00
2023-05-19T02:06:35.215Z,526.00
2023-05-19T02:07:35.423Z,521.00
2023-05-19T02:08:36.359Z,526.00
2023-05-19T02:09:35.260Z,522.00
2023-05-19T02:10:35.285Z,524.00
2023-05-19T02:11:35.439Z,528.00
2023-05-19T02:12:35.349Z,525.00
2023-05-19T02:13:36.364Z,524.00
2023-05-19T02:14:36.262Z,521.00
2023-05-19T02:15:35.409Z,525.00
2023-05-19T02:16:35.331Z,522.00
2023-05-19T02:17:35.265Z,522.00
2023-05-19T02:18:35.384Z,524.00
2023-05-19T02:19:35.275Z,524.00
2023-05-19T02:20:35.462Z,524.00
2023-05-19T02:21:36.310Z,523.00
2023-05-19T02:22:35.564Z,523.00
2023-05-19T02:23:36.555Z,525.00
2023-05-19T02:24:35.390Z,521.00
2023-05-19T02:25:36.368Z,525.00
2023-05-19T02:26:35.527Z,520.00
2023-05-19T02:27:36.366Z,522.00
2023-05-19T02:28:36.354Z,525.00
2023-05-19T02:29:36.507Z,523.00
2023-05-19T02:30:35.465Z,524.00
2023-05-19T02:31:35.625Z,520.00
2023-05-19T02:32:35.450Z,522.00
2023-05-19T02:33:35.505Z,521.00
2023-05-19T02:34:35.448Z,521.00
2023-05-19T02:35:36.594Z,522.00
2023-05-19T02:36:35.617Z,521.00
2023-05-19T02:37:35.546Z,518.00
2023-05-19T02:38:35.812Z,524.00
2023-05-19T02:39:35.567Z,520.00
2023-05-19T02:40:36.791Z,517.00
2023-05-19T02:41:35.786Z,522.00
2023-05-19T02:42:36.720Z,523.00
2023-05-19T02:43:36.682Z,524.00
2023-05-19T02:44:35.718Z,523.00
2023-05-19T02:45:35.891Z,524.00
2023-05-19T02:46:36.928Z,522.00
2023-05-19T02:47:37.311Z,526.00
2023-05-19T02:48:36.822Z,525.00
2023-05-19T02:49:36.060Z,522.00
2023-05-19T02:50:35.792Z,523.00
2023-05-19T02:51:35.796Z,519.00
2023-05-19T02:52:35.952Z,523.00
2023-05-19T02:53:37.060Z,524.00
2023-05-19T02:54:36.915Z,521.00
2023-05-19T02:55:37.062Z,521.00
2023-05-19T02:56:35.892Z,524.00
2023-05-19T02:57:36.036Z,519.00
2023-05-19T02:58:37.092Z,526.00
2023-05-19T02:59:36.899Z,521.00
2023-05-19T03:00:37.009Z,523.00
2023-05-19T03:01:35.943Z,527.00
2023-05-19T03:02:36.041Z,527.00
2023-05-19T03:03:36.100Z,520.00
2023-05-19T03:04:37.008Z,526.00
2023-05-19T03:05:37.151Z,520.00
2023-05-19T03:06:36.081Z,520.00
2023-05-19T03:07:36.304Z,518.00
2023-05-19T03:08:36.377Z,522.00
2023-05-19T03:09:36.087Z,520.00
2023-05-19T03:10:36.948Z,522.00
2023-05-19T03:11:36.178Z,531.00
2023-05-19T03:12:37.315Z,522.00
2023-05-19T03:13:36.306Z,523.00
2023-05-19T03:14:37.304Z,522.00
2023-05-19T03:15:37.297Z,520.00
2023-05-19T03:16:36.308Z,526.00
2023-05-19T03:17:36.221Z,520.00
2023-05-19T03:18:37.491Z,523.00
2023-05-19T03:19:37.142Z,523.00
2023-05-19T03:20:38.229Z,518.00
2023-05-19T03:21:36.280Z,524.00
2023-05-19T03:22:36.308Z,523.00
2023-05-19T03:23:36.112Z,521.00
2023-05-19T03:24:37.321Z,524.00
2023-05-19T03:25:36.307Z,527.00
2023-05-19T03:26:37.202Z,525.00
2023-05-19T03:27:36.242Z,524.00
2023-05-19T03:28:36.334Z,521.00
2023-05-19T03:29:37.075Z,519.00
2023-05-19T03:30:37.308Z,521.00
2023-05-19T03:31:36.189Z,520.00
2023-05-19T03:32:36.349Z,517.00
2023-05-19T03:33:37.046Z,518.00
2023-05-19T03:34:37.068Z,515.00
2023-05-19T03:35:36.109Z,521.00
2023-05-19T03:36:36.140Z,518.00
2023-05-19T03:37:36.240Z,520.00
2023-05-19T03:38:36.307Z,520.00
2023-05-19T03:39:36.013Z,525.00
2023-05-19T03:40:36.222Z,523.00
2023-05-19T03:41:37.145Z,519.00
2023-05-19T03:42:37.201Z,522.00
2023-05-19T03:43:36.993Z,520.00
2023-05-19T03:44:37.037Z,521.00
2023-05-19T03:45:37.116Z,521.00
2023-05-19T03:46:36.167Z,518.00
2023-05-19T03:47:37.168Z,519.00
2023-05-19T03:48:36.156Z,521.00
2023-05-19T03:49:35.959Z,521.00
2023-05-19T03:50:35.988Z,519.00
2023-05-19T03:51:36.924Z,521.00
2023-05-19T03:52:37.061Z,519.00
2023-05-19T03:53:35.916Z,519.00
2023-05-19T03:54:36.901Z,519.00
2023-05-19T03:55:36.885Z,517.00
2023-05-19T03:56:36.871Z,523.00
2023-05-19T03:57:36.862Z,519.00
2023-05-19T03:58:36.859Z,523.00
2023-05-19T03:59:36.887Z,514.00
2023-05-19T04:00:36.021Z,519.00
2023-05-19T04:01:36.112Z,524.00
2023-05-19T04:02:36.978Z,520.00
2023-05-19T04:03:36.913Z,517.00
2023-05-19T04:04:36.930Z,518.00
2023-05-19T04:05:36.859Z,519.00
2023-05-19T04:06:35.794Z,518.00
2023-05-19T04:07:35.798Z,519.00
2023-05-19T04:08:36.799Z,517.00
2023-05-19T04:09:36.863Z,516.00
2023-05-19T04:10:36.843Z,518.00
2023-05-19T04:11:35.810Z,518.00
2023-05-19T04:12:36.770Z,520.00
2023-05-19T04:13:36.752Z,517.00
2023-05-19T04:14:35.745Z,520.00
2023-05-19T04:15:36.838Z,515.00
2023-05-19T04:16:36.742Z,517.00
2023-05-19T04:17:36.785Z,518.00
2023-05-19T04:18:36.811Z,517.00
2023-05-19T04:19:36.712Z,519.00
2023-05-19T04:20:35.719Z,514.00
2023-05-19T04:21:36.706Z,519.00
2023-05-19T04:22:36.737Z,520.00
2023-05-19T04:23:35.795Z,519.00
2023-05-19T04:24:36.740Z,516.00
2023-05-19T04:25:36.750Z,518.00
2023-05-19T04:26:36.743Z,518.00
2023-05-19T04:27:36.740Z,515.00
2023-05-19T04:28:35.753Z,518.00
2023-05-19T04:29:35.774Z,523.00
2023-05-19T04:30:35.733Z,520.00
2023-05-19T04:31:36.825Z,520.00
2023-05-19T04:32:36.760Z,515.00
2023-05-19T04:33:36.790Z,517.00
2023-05-19T04:34:36.819Z,521.00
2023-05-19T04:35:36.841Z,517.00
2023-05-19T04:36:35.837Z,514.00
2023-05-19T04:37:36.832Z,515.00
2023-05-19T04:38:35.882Z,519.00
2023-05-19T04:39:35.871Z,516.00
2023-05-19T04:40:35.977Z,513.00
2023-05-19T04:41:36.923Z,516.00
2023-05-19T04:42:36.921Z,512.00
2023-05-19T04:43:36.950Z,514.00
2023-05-19T04:44:36.950Z,517.00
2023-05-19T04:45:36.965Z,514.00
2023-05-19T04:46:36.024Z,511.00
2023-05-19T04:47:37.111Z,512.00
2023-05-19T04:48:36.065Z,514.00
2023-05-19T04:49:36.061Z,516.00
2023-05-19T04:50:37.197Z,514.00
2023-05-19T04:51:37.099Z,514.00
2023-05-19T04:52:37.114Z,518.00
2023-05-19T04:53:37.178Z,515.00
2023-05-19T04:54:37.185Z,519.00
2023-05-19T04:55:37.196Z,519.00
2023-05-19T04:56:37.228Z,520.00
2023-05-19T04:57:37.240Z,517.00
2023-05-19T04:58:37.743Z,517.00
2023-05-19T04:59:36.298Z,518.00
2023-05-19T05:00:36.325Z,519.00
2023-05-19T05:01:37.392Z,517.00
2023-05-19T05:02:37.507Z,511.00
2023-05-19T05:03:37.450Z,513.00
2023-05-19T05:04:37.425Z,519.00
2023-05-19T05:05:37.433Z,517.00
2023-05-19T05:06:37.621Z,519.00
2023-05-19T05:07:36.500Z,512.00
2023-05-19T05:08:36.508Z,510.00
2023-05-19T05:09:37.509Z,516.00
2023-05-19T05:10:37.536Z,515.00
2023-05-19T05:11:36.552Z,514.00
2023-05-19T05:12:37.564Z,515.00
2023-05-19T05:13:36.592Z,513.00
2023-05-19T05:14:36.613Z,511.00
2023-05-19T05:15:36.808Z,522.00
2023-05-19T05:16:36.736Z,517.00
2023-05-19T05:17:36.693Z,511.00
2023-05-19T05:18:37.755Z,517.00
2023-05-19T05:19:36.721Z,513.00
2023-05-19T05:20:36.738Z,511.00
2023-05-19T05:21:36.738Z,512.00
2023-05-19T05:22:36.783Z,512.00
2023-05-19T05:23:36.767Z,515.00
2023-05-19T05:24:36.736Z,517.00
2023-05-19T05:25:37.863Z,514.00
2023-05-19T05:26:36.777Z,515.00
2023-05-19T05:27:36.753Z,511.00
2023-05-19T05:28:36.810Z,513.00
2023-05-19T05:29:36.799Z,516.00
2023-05-19T05:30:37.838Z,513.00
2023-05-19T05:31:36.849Z,512.00
2023-05-19T05:32:37.943Z,513.00
2023-05-19T05:33:37.980Z,511.00
2023-05-19T05:34:37.980Z,512.00
2023-05-19T05:35:37.925Z,516.00
2023-05-19T05:36:36.937Z,512.00
2023-05-19T05:37:38.076Z,510.00
2023-05-19T05:38:37.966Z,511.00
2023-05-19T05:39:36.937Z,511.00
2023-05-19T05:40:38.018Z,515.00
2023-05-19T05:41:38.180Z,515.00
2023-05-19T05:42:37.098Z,514.00
2023-05-19T05:43:37.018Z,513.00
2023-05-19T05:44:38.004Z,509.00
2023-05-19T05:45:38.040Z,511.00
2023-05-19T05:46:38.015Z,509.00
2023-05-19T05:47:38.188Z,512.00
2023-05-19T05:48:38.085Z,509.00
2023-05-19T05:49:38.225Z,516.00
2023-05-19T05:50:38.246Z,510.00
2023-05-19T05:51:38.123Z,511.00
2023-05-19T05:52:37.158Z,507.00
2023-05-19T05:53:38.209Z,511.00
2023-05-19T05:54:38.280Z,516.00
2023-05-19T05:55:37.323Z,513.00
2023-05-19T05:56:38.245Z,514.00
2023-05-19T05:57:37.278Z,510.00
2023-05-19T05:58:38.340Z,513.00
2023-05-19T05:59:37.335Z,511.00
2023-05-19T06:00:38.390Z,518.00
2023-05-19T06:01:38.409Z,509.00
2023-05-19T06:02:38.492Z,515.00
2023-05-19T06:03:37.448Z,511.00
2023-05-19T06:04:37.503Z,512.00
2023-05-19T06:05:37.543Z,504.00
2023-05-19T06:06:37.703Z,511.00
2023-05-19T06:07:38.445Z,505.00
2023-05-19T06:08:37.555Z,508.00
2023-05-19T06:09:37.510Z,508.00
2023-05-19T06:10:37.652Z,512.00
2023-05-19T06:11:38.479Z,509.00
2023-05-19T06:12:37.528Z,510.00
2023-05-19T06:13:38.448Z,511.00
2023-05-19T06:14:38.449Z,512.00
2023-05-19T06:15:37.550Z,504.00
2023-05-19T06:16:37.651Z,503.00
2023-05-19T06:17:37.556Z,503.00
2023-05-19T06:18:38.541Z,508.00
2023-05-19T06:19:38.449Z,509.00
2023-05-19T06:20:37.464Z,503.00
2023-05-19T06:21:37.452Z,501.00
2023-05-19T06:22:37.475Z,502.00
2023-05-19T06:23:37.493Z,505.00
2023-05-19T06:24:39.441Z,510.00
2023-05-19T06:25:37.490Z,506.00
2023-05-19T06:26:38.518Z,506.00
2023-05-19T06:27:37.658Z,509.00
2023-05-19T06:28:37.523Z,504.00
2023-05-19T06:29:38.578Z,507.00
2023-05-19T06:30:37.577Z,510.00
2023-05-19T06:31:37.540Z,506.00
2023-05-19T06:32:37.555Z,508.00
2023-05-19T06:33:38.580Z,505.00
2023-05-19T06:34:37.569Z,505.00
2023-05-19T06:35:37.762Z,507.00
2023-05-19T06:36:38.665Z,506.00
2023-05-19T06:37:37.653Z,504.00
2023-05-19T06:38:38.723Z,508.00
2023-05-19T06:39:38.805Z,507.00
2023-05-19T06:40:38.764Z,502.00
2023-05-19T06:41:37.794Z,501.00
2023-05-19T06:42:38.746Z,503.00
2023-05-19T06:43:38.735Z,504.00
2023-05-19T06:44:37.860Z,504.00
2023-05-19T06:45:37.939Z,507.00
2023-05-19T06:46:37.817Z,501.00
2023-05-19T06:47:38.868Z,506.00
2023-05-19T06:48:37.847Z,509.00
2023-05-19T06:49:38.867Z,502.00
2023-05-19T06:50:38.898Z,508.00
2023-05-19T06:51:38.937Z,509.00
2023-05-19T06:52:38.948Z,505.00
2023-05-19T06:53:39.001Z,506.00
2023-05-19T06:54:37.980Z,510.00
2023-05-19T06:55:46.964Z,504.00
2023-05-19T06:56:39.143Z,505.00
2023-05-19T06:57:39.141Z,506.00
2023-05-19T06:58:39.259Z,507.00
2023-05-19T06:59:39.024Z,507.00
2023-05-19T07:00:38.040Z,505.00
2023-05-19T07:01:38.137Z,506.00
2023-05-19T07:02:38.094Z,512.00
2023-05-19T07:03:38.120Z,506.00
2023-05-19T07:04:37.966Z,511.00
2023-05-19T07:05:38.961Z,509.00
2023-05-19T07:06:38.945Z,507.00
2023-05-19T07:07:38.941Z,503.00
2023-05-19T07:08:37.951Z,508.00
2023-05-19T07:09:37.930Z,507.00
2023-05-19T07:10:38.907Z,507.00
2023-05-19T07:11:38.919Z,505.00
2023-05-19T07:12:38.897Z,504.00
2023-05-19T07:13:38.898Z,502.00
2023-05-19T07:14:37.911Z,505.00
2023-05-19T07:15:38.946Z,503.00
2023-05-19T07:16:37.927Z,503.00
2023-05-19T07:17:38.907Z,504.00
2023-05-19T07:18:37.948Z,506.00
2023-05-19T07:19:37.858Z,503.00
2023-05-19T07:20:37.851Z,505.00
2023-05-19T07:21:37.858Z,507.00
2023-05-19T07:22:38.873Z,507.00
2023-05-19T07:23:37.847Z,504.00
2023-05-19T07:24:38.822Z,508.00
2023-05-19T07:25:38.806Z,503.00
2023-05-19T07:26:38.814Z,505.00
2023-05-19T07:27:39.011Z,504.00
2023-05-19T07:28:39.877Z,511.00
2023-05-19T07:29:37.804Z,516.00
2023-05-19T07:30:38.814Z,507.00
2023-05-19T07:31:37.830Z,512.00
2023-05-19T07:32:38.935Z,511.00
2023-05-19T07:33:37.781Z,510.00
2023-05-19T07:34:38.776Z,510.00
2023-05-19T07:35:37.785Z,512.00
2023-05-19T07:36:38.819Z,509.00
2023-05-19T07:37:38.893Z,514.00
2023-05-19T07:38:37.789Z,511.00
2023-05-19T07:39:38.815Z,507.00
2023-05-19T07:40:37.757Z,510.00
2023-05-19T07:41:38.722Z,508.00
2023-05-19T07:42:38.701Z,508.00
2023-05-19T07:43:38.785Z,507.00
2023-05-19T07:44:37.685Z,505.00
2023-05-19T07:45:38.687Z,509.00
2023-05-19T07:46:38.809Z,506.00
2023-05-19T07:47:38.819Z,504.00
2023-05-19T07:48:38.660Z,500.00
2023-05-19T07:49:38.776Z,504.00
2023-05-19T07:50:38.651Z,506.00
2023-05-19T07:51:38.622Z,506.00
2023-05-19T07:52:37.665Z,504.00
2023-05-19T07:53:37.664Z,510.00
2023-05-19T07:54:38.613Z,508.00
2023-05-19T07:55:37.616Z,506.00
2023-05-19T07:56:37.588Z,504.00
2023-05-19T07:57:38.595Z,501.00
2023-05-19T07:58:38.591Z,503.00
2023-05-19T07:59:38.606Z,505.00
2023-05-19T08:00:37.584Z,505.00
2023-05-19T08:01:38.624Z,504.00
2023-05-19T08:02:37.758Z,507.00
2023-05-19T08:03:38.827Z,505.00
2023-05-19T08:04:38.961Z,502.00
2023-05-19T08:05:38.813Z,506.00
2023-05-19T08:06:38.799Z,500.00
2023-05-19T08:07:39.033Z,504.00
2023-05-19T08:08:37.867Z,509.00
2023-05-19T08:09:38.007Z,504.00
2023-05-19T08:10:38.940Z,506.00
2023-05-19T08:11:38.988Z,504.00
2023-05-19T08:12:39.005Z,510.00
2023-05-19T08:13:39.046Z,506.00
2023-05-19T08:14:38.214Z,508.00
2023-05-19T08:15:39.211Z,504.00
2023-05-19T08:16:39.204Z,505.00
2023-05-19T08:17:38.306Z,508.00
2023-05-19T08:18:38.313Z,504.00
2023-05-19T08:19:38.247Z,503.00
2023-05-19T08:20:39.474Z,504.00
2023-05-19T08:21:38.502Z,508.00
2023-05-19T08:22:38.357Z,503.00
2023-05-19T08:23:39.477Z,508.00
2023-05-19T08:24:39.393Z,509.00
2023-05-19T08:25:39.435Z,509.00
2023-05-19T08:26:39.468Z,503.00
2023-05-19T08:27:38.582Z,509.00
2023-05-19T08:28:39.602Z,508.00
2023-05-19T08:29:39.613Z,508.00
2023-05-19T08:30:38.642Z,508.00
2023-05-19T08:31:38.677Z,508.00
2023-05-19T08:32:38.770Z,503.00
2023-05-19T08:33:39.669Z,504.00
2023-05-19T08:34:38.765Z,514.00
2023-05-19T08:35:38.903Z,502.00
2023-05-19T08:36:39.780Z,509.00
2023-05-19T08:37:39.790Z,511.00
2023-05-19T08:38:38.813Z,507.00
2023-05-19T08:39:38.841Z,504.00
2023-05-19T08:40:38.972Z,509.00
2023-05-19T08:41:39.003Z,509.00
2023-05-19T08:42:38.916Z,501.00
2023-05-19T08:43:38.942Z,501.00
2023-05-19T08:44:39.982Z,507.00
2023-05-19T08:45:38.992Z,506.00
2023-05-19T08:46:40.108Z,507.00
2023-05-19T08:47:39.076Z,503.00
2023-05-19T08:48:40.061Z,506.00
2023-05-19T08:49:39.078Z,511.00
2023-05-19T08:50:40.131Z,505.00
2023-05-19T08:51:40.129Z,509.00
2023-05-19T08:52:39.284Z,505.00
2023-05-19T08:53:39.184Z,503.00
2023-05-19T08:54:39.216Z,501.00
2023-05-19T08:55:39.262Z,501.00
2023-05-19T08:56:40.274Z,506.00
2023-05-19T08:57:40.403Z,507.00
2023-05-19T08:58:40.357Z,511.00
2023-05-19T08:59:40.366Z,510.00
2023-05-19T09:00:39.664Z,505.00
2023-05-19T09:01:40.438Z,506.00
2023-05-19T09:02:50.472Z,506.00
2023-05-19T09:03:40.643Z,506.00
2023-05-19T09:04:39.677Z,507.00
2023-05-19T09:05:39.487Z,508.00
2023-05-19T09:06:40.451Z,512.00
2023-05-19T09:07:39.419Z,510.00
2023-05-19T09:08:40.488Z,507.00
2023-05-19T09:09:39.416Z,510.00
2023-05-19T09:10:40.500Z,513.00
2023-05-19T09:11:40.406Z,514.00
2023-05-19T09:12:40.398Z,510.00
2023-05-19T09:13:40.478Z,507.00
2023-05-19T09:14:40.375Z,510.00
2023-05-19T09:15:40.432Z,510.00
2023-05-19T09:16:40.433Z,510.00
2023-05-19T09:17:40.418Z,506.00
2023-05-19T09:18:40.392Z,508.00
2023-05-19T09:19:40.372Z,512.00
2023-05-19T09:20:40.356Z,509.00
2023-05-19T09:21:40.369Z,513.00
2023-05-19T09:22:40.480Z,506.00
2023-05-19T09:23:40.390Z,510.00
2023-05-19T09:24:40.339Z,509.00
2023-05-19T09:25:40.303Z,509.00
2023-05-19T09:26:40.350Z,515.00
2023-05-19T09:27:40.287Z,510.00
2023-05-19T09:28:39.310Z,511.00
2023-05-19T09:29:40.422Z,518.00
2023-05-19T09:30:40.268Z,517.00
2023-05-19T09:31:40.308Z,516.00
2023-05-19T09:32:40.440Z,516.00
2023-05-19T09:33:39.356Z,514.00
2023-05-19T09:34:39.248Z,514.00
2023-05-19T09:35:39.273Z,514.00
2023-05-19T09:36:40.230Z,513.00
2023-05-19T09:37:39.232Z,516.00
2023-05-19T09:38:39.572Z,513.00
2023-05-19T09:39:39.226Z,516.00
2023-05-19T09:40:40.219Z,518.00
2023-05-19T09:41:40.222Z,518.00
2023-05-19T09:42:39.203Z,513.00
2023-05-19T09:43:39.196Z,510.00
2023-05-19T09:44:39.245Z,513.00
2023-05-19T09:45:39.186Z,511.00
2023-05-19T09:46:40.264Z,512.00
2023-05-19T09:47:40.355Z,511.00
2023-05-19T09:48:40.171Z,514.00
2023-05-19T09:49:39.203Z,512.00
2023-05-19T09:50:40.213Z,518.00
2023-05-19T09:51:39.174Z,517.00
2023-05-19T09:52:40.127Z,522.00
2023-05-19T09:53:40.135Z,510.00
2023-05-19T09:54:40.177Z,516.00
2023-05-19T09:55:39.244Z,514.00
2023-05-19T09:56:39.210Z,519.00
2023-05-19T09:57:40.354Z,517.00
2023-05-19T09:58:40.240Z,517.00
2023-05-19T09:59:39.171Z,515.00
2023-05-19T10:00:40.169Z,518.00
2023-05-19T10:01:40.175Z,518.00
2023-05-19T10:02:40.210Z,513.00
2023-05-19T10:03:40.173Z,517.00
2023-05-19T10:04:40.152Z,515.00
2023-05-19T10:05:40.132Z,513.00
2023-05-19T10:06:40.163Z,516.00
2023-05-19T10:07:39.265Z,518.00
2023-05-19T10:08:39.300Z,518.00
2023-05-19T10:09:40.124Z,518.00
2023-05-19T10:10:40.368Z,518.00
2023-05-19T10:11:40.193Z,517.00
2023-05-19T10:12:39.184Z,517.00
2023-05-19T10:13:40.178Z,520.00
2023-05-19T10:14:40.169Z,518.00
2023-05-19T10:15:53.703Z,521.00
2023-05-19T10:16:40.376Z,521.00
2023-05-19T10:17:39.171Z,521.00
2023-05-19T10:18:40.369Z,517.00
2023-05-19T10:19:40.141Z,523.00
2023-05-19T10:20:40.141Z,524.00
2023-05-19T10:21:40.168Z,520.00
2023-05-19T10:22:40.126Z,516.00
2023-05-19T10:23:40.118Z,517.00
2023-05-19T10:24:40.215Z,515.00
2023-05-19T10:25:39.186Z,518.00
2023-05-19T10:26:40.127Z,517.00
2023-05-19T10:27:40.194Z,520.00
2023-05-19T10:28:40.077Z,519.00
2023-05-19T10:29:40.086Z,514.00
2023-05-19T10:30:40.070Z,521.00
2023-05-19T10:31:39.094Z,519.00
2023-05-19T10:32:39.217Z,515.00
2023-05-19T10:33:39.149Z,522.00
2023-05-19T10:34:40.036Z,521.00
2023-05-19T10:35:40.061Z,516.00
2023-05-19T10:36:40.075Z,512.00
2023-05-19T10:37:39.248Z,511.00
2023-05-19T10:38:40.152Z,508.00
2023-05-19T10:39:39.216Z,515.00
2023-05-19T10:40:39.172Z,514.00
2023-05-19T10:41:40.188Z,522.00
2023-05-19T10:42:39.238Z,516.00
2023-05-19T10:43:39.223Z,516.00
2023-05-19T10:44:39.408Z,514.00
2023-05-19T10:45:39.249Z,513.00
2023-05-19T10:46:40.302Z,516.00
2023-05-19T10:47:39.247Z,519.00
2023-05-19T10:48:40.317Z,520.00
2023-05-19T10:49:40.523Z,516.00
2023-05-19T10:50:39.311Z,518.00
2023-05-19T10:51:40.356Z,521.00
2023-05-19T10:52:39.289Z,520.00
2023-05-19T10:53:39.385Z,517.00
2023-05-19T10:54:40.329Z,516.00
2023-05-19T10:55:40.343Z,518.00
2023-05-19T10:56:40.374Z,522.00
2023-05-19T10:57:40.353Z,520.00
2023-05-19T10:58:40.442Z,519.00
2023-05-19T10:59:39.367Z,524.00
2023-05-19T11:00:39.380Z,519.00
2023-05-19T11:01:39.515Z,521.00
2023-05-19T11:02:39.455Z,523.00
2023-05-19T11:03:43.009Z,518.00
2023-05-19T11:04:39.560Z,526.00
2023-05-19T11:05:40.464Z,524.00
2023-05-19T11:06:39.472Z,525.00
2023-05-19T11:07:39.430Z,522.00
2023-05-19T11:08:39.419Z,523.00
2023-05-19T11:09:40.831Z,521.00
2023-05-19T11:10:39.482Z,528.00
2023-05-19T11:11:40.419Z,523.00
2023-05-19T11:12:39.407Z,521.00
2023-05-19T11:13:40.540Z,525.00
2023-05-19T11:14:39.496Z,526.00
2023-05-19T11:15:39.353Z,527.00
2023-05-19T11:16:40.399Z,524.00
2023-05-19T11:17:40.364Z,527.00
2023-05-19T11:18:40.354Z,524.00
2023-05-19T11:19:40.484Z,525.00
2023-05-19T11:20:39.481Z,523.00
2023-05-19T11:21:39.312Z,530.00
2023-05-19T11:22:40.309Z,518.00
2023-05-19T11:23:39.349Z,519.00
2023-05-19T11:24:39.290Z,531.00
2023-05-19T11:25:40.289Z,528.00
2023-05-19T11:26:40.322Z,526.00
2023-05-19T11:27:40.270Z,530.00
2023-05-19T11:28:40.268Z,531.00
2023-05-19T11:29:39.363Z,527.00
2023-05-19T11:30:40.299Z,523.00
2023-05-19T11:31:39.304Z,528.00
2023-05-19T11:32:40.449Z,531.00
2023-05-19T11:33:39.235Z,530.00
2023-05-19T11:34:40.311Z,527.00
2023-05-19T11:35:39.350Z,528.00
2023-05-19T11:36:39.404Z,533.00
2023-05-19T11:37:39.263Z,527.00
2023-05-19T11:38:39.374Z,533.00
2023-05-19T11:39:40.190Z,532.00
2023-05-19T11:40:39.192Z,530.00
2023-05-19T11:41:39.184Z,531.00
2023-05-19T11:42:39.353Z,531.00
2023-05-19T11:43:39.200Z,533.00
2023-05-19T11:44:39.188Z,530.00
2023-05-19T11:45:40.202Z,530.00
2023-05-19T11:46:40.199Z,532.00
2023-05-19T11:47:56.420Z,533.00
2023-05-19T11:48:40.235Z,533.00
2023-05-19T11:49:40.164Z,534.00
2023-05-19T11:50:39.357Z,532.00
2023-05-19T11:51:39.238Z,533.00
2023-05-19T11:52:39.100Z,533.00
2023-05-19T11:53:39.201Z,533.00
2023-05-19T11:54:40.262Z,535.00
2023-05-19T11:55:39.175Z,538.00
2023-05-19T11:56:39.311Z,531.00
2023-05-19T11:57:40.430Z,525.00
2023-05-19T11:58:40.231Z,533.00
2023-05-19T11:59:39.045Z,531.00
2023-05-19T12:00:39.198Z,536.00
2023-05-19T12:01:40.100Z,533.00
2023-05-19T12:02:39.353Z,537.00
2023-05-19T12:03:40.365Z,533.00
2023-05-19T12:04:40.265Z,535.00
2023-05-19T12:05:43.092Z,532.00
2023-05-19T12:06:40.544Z,533.00
2023-05-19T12:07:40.312Z,533.00
2023-05-19T12:08:40.300Z,533.00
2023-05-19T12:09:39.337Z,536.00
2023-05-19T12:10:39.294Z,537.00
2023-05-19T12:11:40.340Z,532.00
2023-05-19T12:12:39.269Z,538.00
2023-05-19T12:13:40.301Z,533.00
2023-05-19T12:14:39.337Z,534.00
2023-05-19T12:15:40.358Z,532.00
2023-05-19T12:16:40.389Z,533.00
2023-05-19T12:17:39.303Z,533.00
2023-05-19T12:18:39.374Z,535.00
2023-05-19T12:19:39.248Z,538.00
2023-05-19T12:20:39.368Z,537.00
2023-05-19T12:21:39.247Z,536.00
2023-05-19T12:22:40.255Z,535.00
2023-05-19T12:23:40.336Z,529.00
2023-05-19T12:24:39.281Z,533.00
2023-05-19T12:25:40.330Z,533.00
2023-05-19T12:26:39.177Z,533.00
2023-05-19T12:27:40.227Z,533.00
2023-05-19T12:28:40.146Z,534.00